createdAt,value
2023-05-18T00:02:19.259Z,1.70
2023-05-18T00:04:45.942Z,1.77
2023-05-18T00:07:12.596Z,1.75
2023-05-18T00:09:39.130Z,1.80
2023-05-18T00:12:06.298Z,3.30
2023-05-18T00:14:32.982Z,2.70
2023-05-18T00:17:01.803Z,1.60
2023-05-18T00:19:30.125Z,1.55
2023-05-18T00:21:57.238Z,1.73
2023-05-18T00:24:24.332Z,1.73
2023-05-18T00:26:50.854Z,1.58
2023-05-18T00:29:17.492Z,1.80
2023-05-18T00:31:45.481Z,1.77
2023-05-18T00:34:13.897Z,1.77
2023-05-18T00:36:41.073Z,1.90
2023-05-18T00:39:09.312Z,1.60
2023-05-18T00:41:36.305Z,2.08
2023-05-18T00:44:04.589Z,1.48
2023-05-18T00:46:31.863Z,1.75
2023-05-18T00:49:01.555Z,1.90
2023-05-18T00:51:29.015Z,1.65
2023-05-18T00:53:57.196Z,1.70
2023-05-18T00:56:24.928Z,1.90
2023-05-18T00:58:55.616Z,1.50
2023-05-18T01:01:28.737Z,2.10
2023-05-18T01:03:56.547Z,2.50
2023-05-18T01:06:26.452Z,1.70
2023-05-18T01:08:54.594Z,1.48
2023-05-18T01:11:38.650Z,1.50
2023-05-18T01:14:30.733Z,1.70
2023-05-18T01:17:06.410Z,1.77
2023-05-18T01:20:02.624Z,1.85
2023-05-18T01:23:03.170Z,1.88
2023-05-18T01:25:34.861Z,1.70
2023-05-18T01:28:06.664Z,1.70
2023-05-18T01:30:41.494Z,1.77
2023-05-18T01:33:09.576Z,2.10
2023-05-18T01:35:36.923Z,2.03
2023-05-18T01:38:04.183Z,2.03
2023-05-18T01:40:41.201Z,1.70
2023-05-18T01:43:15.285Z,1.95
2023-05-18T01:45:47.008Z,1.73
2023-05-18T01:48:18.558Z,2.33
2023-05-18T01:50:48.824Z,2.22
2023-05-18T01:53:32.983Z,1.63
2023-05-18T01:56:01.061Z,1.48
2023-05-18T01:58:28.752Z,1.92
2023-05-18T02:00:55.812Z,2.13
2023-05-18T02:03:22.431Z,1.88
2023-05-18T02:05:48.973Z,1.80
2023-05-18T02:08:16.242Z,2.22
2023-05-18T02:10:42.655Z,1.77
2023-05-18T02:13:09.079Z,2.22
2023-05-18T02:15:35.676Z,2.75
2023-05-18T02:18:02.903Z,1.90
2023-05-18T02:20:33.327Z,1.70
2023-05-18T02:23:00.194Z,1.80
2023-05-18T02:25:26.620Z,2.33
2023-05-18T02:27:53.053Z,1.92
2023-05-18T02:30:19.637Z,2.25
2023-05-18T02:32:46.992Z,1.98
2023-05-18T02:35:13.743Z,1.80
2023-05-18T02:37:42.249Z,1.80
2023-05-18T02:40:12.823Z,2.10
2023-05-18T02:42:39.285Z,1.85
2023-05-18T02:45:06.492Z,2.05
2023-05-18T02:47:32.968Z,2.00
2023-05-18T02:49:59.387Z,1.80
2023-05-18T02:52:25.927Z,2.00
2023-05-18T02:54:54.663Z,1.70
2023-05-18T02:57:21.678Z,2.05
2023-05-18T02:59:48.081Z,2.17
2023-05-18T03:02:14.564Z,2.38
2023-05-18T03:04:41.807Z,2.10
2023-05-18T03:07:08.409Z,2.25
2023-05-18T03:09:34.807Z,2.03
2023-05-18T03:12:01.293Z,2.10
2023-05-18T03:14:27.707Z,2.03
2023-05-18T03:16:57.941Z,2.05
2023-05-18T03:19:24.800Z,2.03
2023-05-18T03:21:51.501Z,2.00
2023-05-18T03:24:17.913Z,1.98
2023-05-18T03:26:44.672Z,2.55
2023-05-18T03:29:13.362Z,2.10
2023-05-18T03:31:40.285Z,1.95
2023-05-18T03:34:06.882Z,2.00
2023-05-18T03:36:33.391Z,2.78
2023-05-18T03:38:59.824Z,1.73
2023-05-18T03:41:26.460Z,1.90
2023-05-18T03:43:52.995Z,2.00
2023-05-18T03:46:19.494Z,1.80
2023-05-18T03:48:45.960Z,1.70
2023-05-18T03:51:12.404Z,2.10
2023-05-18T03:53:38.848Z,1.90
2023-05-18T03:56:05.441Z,1.70
2023-05-18T03:58:31.898Z,2.38
2023-05-18T04:00:58.773Z,1.60
2023-05-18T04:03:26.905Z,1.70
2023-05-18T04:05:53.991Z,1.90
2023-05-18T04:08:20.402Z,1.73
2023-05-18T04:10:46.814Z,1.70
2023-05-18T04:13:13.232Z,2.53
2023-05-18T04:15:39.700Z,2.13
2023-05-18T04:18:06.612Z,1.83
2023-05-18T04:20:33.026Z,1.92
2023-05-18T04:23:00.078Z,1.73
2023-05-18T04:25:29.790Z,2.08
2023-05-18T04:27:57.274Z,1.65
2023-05-18T04:30:26.587Z,1.65
2023-05-18T04:32:54.672Z,2.08
2023-05-18T04:35:21.346Z,1.88
2023-05-18T04:37:47.787Z,2.28
2023-05-18T04:40:16.925Z,2.10
2023-05-18T04:42:50.715Z,1.98
2023-05-18T04:45:19.397Z,1.52
2023-05-18T04:47:47.290Z,1.90
2023-05-18T04:50:18.322Z,2.15
2023-05-18T04:52:50.397Z,1.75
2023-05-18T04:55:28.911Z,2.35
2023-05-18T04:57:56.818Z,1.60
2023-05-18T05:00:24.892Z,2.17
2023-05-18T05:02:51.528Z,1.88
2023-05-18T05:05:18.936Z,2.08
2023-05-18T05:07:45.794Z,2.20
2023-05-18T05:10:12.281Z,2.10
2023-05-18T05:12:39.005Z,1.88
2023-05-18T05:15:05.979Z,2.33
2023-05-18T05:17:32.580Z,1.70
2023-05-18T05:19:59.122Z,2.00
2023-05-18T05:22:25.584Z,1.85
2023-05-18T05:24:52.115Z,1.92
2023-05-18T05:27:19.061Z,2.17
2023-05-18T05:29:47.077Z,2.00
2023-05-18T05:32:13.722Z,2.42
2023-05-18T05:34:40.361Z,2.00
2023-05-18T05:37:06.998Z,2.10
2023-05-18T05:39:33.637Z,2.03
2023-05-18T05:42:00.010Z,1.67
2023-05-18T05:44:26.474Z,2.20
2023-05-18T05:46:52.987Z,1.63
2023-05-18T05:49:19.428Z,2.10
2023-05-18T05:51:45.886Z,1.65
2023-05-18T05:54:12.282Z,1.90
2023-05-18T05:56:38.709Z,1.90
2023-05-18T05:59:05.189Z,2.00
2023-05-18T06:01:32.176Z,2.65
2023-05-18T06:03:58.595Z,2.00
2023-05-18T06:06:24.992Z,2.30
2023-05-18T06:08:51.373Z,2.22
2023-05-18T06:11:18.135Z,3.03
2023-05-18T06:13:44.584Z,1.95
2023-05-18T06:16:11.091Z,1.80
2023-05-18T06:18:37.658Z,1.70
2023-05-18T06:21:04.276Z,1.42
2023-05-18T06:23:30.857Z,1.80
2023-05-18T06:25:57.313Z,1.63
2023-05-18T06:28:23.755Z,1.80
2023-05-18T06:30:50.198Z,1.75
2023-05-18T06:33:16.711Z,1.33
2023-05-18T06:35:43.140Z,1.50
2023-05-18T06:38:09.598Z,1.77
2023-05-18T06:40:36.032Z,1.58
2023-05-18T06:43:02.455Z,1.58
2023-05-18T06:45:29.137Z,1.45
2023-05-18T06:47:56.406Z,1.52
2023-05-18T06:50:23.028Z,2.00
2023-05-18T06:52:49.444Z,1.63
2023-05-18T06:55:16.654Z,1.35
2023-05-18T06:57:43.135Z,1.67
2023-05-18T07:00:12.965Z,1.33
2023-05-18T07:02:40.713Z,1.80
2023-05-18T07:05:09.171Z,1.80
2023-05-18T07:07:37.571Z,1.58
2023-05-18T07:10:04.741Z,1.60
2023-05-18T07:12:31.516Z,1.48
2023-05-18T07:14:58.002Z,1.73
2023-05-18T07:17:24.413Z,1.80
2023-05-18T07:19:50.817Z,1.15
2023-05-18T07:22:17.338Z,1.85
2023-05-18T07:24:43.743Z,1.65
2023-05-18T07:27:10.241Z,1.40
2023-05-18T07:29:36.723Z,1.58
2023-05-18T07:32:03.306Z,1.48
2023-05-18T07:34:29.784Z,1.42
2023-05-18T07:36:56.277Z,1.40
2023-05-18T07:39:28.526Z,1.42
2023-05-18T07:41:56.320Z,1.70
2023-05-18T07:44:22.832Z,1.67
2023-05-18T07:46:49.353Z,1.35
2023-05-18T07:49:15.907Z,1.42
2023-05-18T07:51:42.374Z,1.23
2023-05-18T07:54:09.156Z,1.40
2023-05-18T07:56:36.052Z,1.40
2023-05-18T07:59:02.860Z,1.52
2023-05-18T08:01:30.282Z,1.88
2023-05-18T08:03:56.912Z,1.63
2023-05-18T08:06:23.942Z,1.50
2023-05-18T08:08:50.344Z,1.40
2023-05-18T08:11:16.705Z,1.50
2023-05-18T08:13:43.187Z,1.65
2023-05-18T08:16:12.263Z,1.50
2023-05-18T08:18:39.280Z,1.52
2023-05-18T08:21:08.219Z,1.40
2023-05-18T08:23:35.229Z,1.67
2023-05-18T08:26:03.494Z,1.40
2023-05-18T08:28:30.588Z,1.35
2023-05-18T08:30:57.201Z,2.40
2023-05-18T08:33:23.785Z,1.88
2023-05-18T08:35:50.323Z,1.70
2023-05-18T08:38:16.932Z,1.60
2023-05-18T08:41:01.942Z,1.42
2023-05-18T08:43:33.462Z,1.70
2023-05-18T08:46:28.926Z,1.90
2023-05-18T08:48:58.635Z,1.70
2023-05-18T08:51:28.668Z,2.10
2023-05-18T08:53:55.253Z,1.40
2023-05-18T08:56:23.895Z,1.70
2023-05-18T08:58:52.329Z,1.30
2023-05-18T09:01:18.938Z,1.80
2023-05-18T09:03:49.244Z,1.60
2023-05-18T09:06:16.072Z,1.75
2023-05-18T09:08:43.231Z,2.20
2023-05-18T09:11:11.328Z,2.67
2023-05-18T09:13:38.761Z,1.77
2023-05-18T09:16:07.848Z,1.80
2023-05-18T09:18:34.411Z,2.03
2023-05-18T09:21:00.995Z,1.60
2023-05-18T09:23:27.670Z,2.28
2023-05-18T09:25:55.264Z,1.60
2023-05-18T09:28:33.043Z,1.70
2023-05-18T09:30:59.518Z,2.13
2023-05-18T09:33:26.162Z,1.40
2023-05-18T09:35:52.740Z,1.70
2023-05-18T09:38:23.212Z,1.85
2023-05-18T09:40:50.432Z,1.92
2023-05-18T09:43:18.928Z,1.80
2023-05-18T09:45:48.356Z,1.42
2023-05-18T09:48:16.525Z,1.90
2023-05-18T09:50:46.408Z,1.80
2023-05-18T09:53:14.052Z,1.73
2023-05-18T09:55:50.096Z,1.80
2023-05-18T09:58:17.365Z,2.15
2023-05-18T10:00:51.600Z,2.17
2023-05-18T10:03:21.639Z,1.77
2023-05-18T10:05:48.245Z,2.15
2023-05-18T10:08:16.403Z,2.15
2023-05-18T10:10:49.048Z,1.70
2023-05-18T10:13:20.094Z,2.35
2023-05-18T10:15:53.963Z,1.90
2023-05-18T10:18:22.916Z,2.08
2023-05-18T10:20:51.068Z,1.50
2023-05-18T10:23:20.106Z,1.92
2023-05-18T10:25:48.518Z,2.00
2023-05-18T10:28:21.247Z,2.30
2023-05-18T10:30:48.057Z,2.10
2023-05-18T10:33:27.985Z,2.53
2023-05-18T10:35:55.775Z,1.98
2023-05-18T10:38:27.586Z,1.85
2023-05-18T10:43:27.157Z,1.85
2023-05-18T10:45:59.345Z,2.42
2023-05-18T10:48:27.060Z,2.17
2023-05-18T10:50:55.625Z,2.53
2023-05-18T10:53:24.736Z,2.50
2023-05-18T10:55:51.859Z,2.13
2023-05-18T10:58:23.636Z,2.22
2023-05-18T11:03:19.707Z,2.40
2023-05-18T11:05:51.190Z,2.33
2023-05-18T11:08:27.253Z,2.15
2023-05-18T11:11:03.238Z,1.98
2023-05-18T11:13:31.325Z,1.98
2023-05-18T11:15:59.125Z,2.20
2023-05-18T11:18:45.815Z,1.90
2023-05-18T11:21:24.240Z,2.08
2023-05-18T11:24:28.237Z,1.80
2023-05-18T11:27:08.499Z,2.22
2023-05-18T11:29:37.480Z,2.00
2023-05-18T11:32:05.290Z,1.73
2023-05-18T11:34:39.149Z,2.30
2023-05-18T11:37:14.601Z,2.13
2023-05-18T11:39:51.779Z,1.77
2023-05-18T11:42:22.940Z,2.30
2023-05-18T11:44:55.583Z,2.08
2023-05-18T11:47:29.614Z,2.10
2023-05-18T11:49:57.298Z,2.10
2023-05-18T11:52:25.762Z,2.15
2023-05-18T11:54:52.809Z,2.28
2023-05-18T11:57:26.652Z,1.95
2023-05-18T11:59:58.120Z,1.98
2023-05-18T12:02:28.364Z,2.20
2023-05-18T12:04:56.929Z,1.88
2023-05-18T12:07:25.321Z,1.90
2023-05-18T12:09:51.864Z,2.40
2023-05-18T12:12:23.360Z,2.35
2023-05-18T12:15:09.530Z,2.00
2023-05-18T12:17:40.450Z,2.30
2023-05-18T12:20:15.653Z,2.47
2023-05-18T12:22:43.743Z,2.05
2023-05-18T12:25:11.006Z,2.10
2023-05-18T12:27:42.637Z,2.10
2023-05-18T12:30:16.872Z,1.77
2023-05-18T12:32:54.527Z,2.35
2023-05-18T12:35:23.528Z,2.22
2023-05-18T12:37:50.000Z,2.17
2023-05-18T12:40:18.350Z,1.80
2023-05-18T12:43:00.957Z,1.48
2023-05-18T12:45:31.786Z,2.00
2023-05-18T12:53:17.280Z,2.00
2023-05-18T12:55:44.286Z,1.95
2023-05-18T12:58:15.869Z,2.22
2023-05-18T13:00:46.947Z,2.20
2023-05-18T13:03:16.440Z,2.72
2023-05-18T13:05:45.381Z,2.28
2023-05-18T13:08:17.787Z,1.90
2023-05-18T13:10:45.172Z,2.50
2023-05-18T13:13:15.374Z,2.15
2023-05-18T13:15:43.435Z,1.90
2023-05-18T13:18:11.674Z,2.17
2023-05-18T13:20:51.412Z,2.25
2023-05-18T13:23:21.085Z,2.30
2023-05-18T13:25:48.085Z,2.30
2023-05-18T13:28:16.882Z,2.30
2023-05-18T13:30:44.471Z,2.28
2023-05-18T13:33:12.134Z,2.10
2023-05-18T13:35:42.951Z,2.65
2023-05-18T13:38:10.610Z,2.08
2023-05-18T13:40:37.903Z,2.35
2023-05-18T13:43:06.109Z,1.73
2023-05-18T13:45:33.109Z,2.40
2023-05-18T13:47:59.952Z,2.25
2023-05-18T13:50:26.829Z,2.60
2023-05-18T13:52:53.373Z,2.10
2023-05-18T13:55:19.969Z,2.72
2023-05-18T13:57:46.804Z,2.20
2023-05-18T14:00:14.266Z,2.10
2023-05-18T14:02:41.647Z,2.20
2023-05-18T14:05:09.877Z,2.28
2023-05-18T14:07:37.325Z,2.22
2023-05-18T14:10:05.122Z,2.03
2023-05-18T14:12:32.382Z,1.90
2023-05-18T14:14:59.548Z,2.20
2023-05-18T14:17:27.543Z,2.33
2023-05-18T14:19:53.989Z,2.08
2023-05-18T14:22:21.854Z,2.15
2023-05-18T14:24:49.013Z,2.28
2023-05-18T14:27:15.567Z,2.00
2023-05-18T14:29:43.059Z,2.50
2023-05-18T14:32:09.805Z,1.98
2023-05-18T14:34:36.565Z,2.05
2023-05-18T14:37:03.077Z,1.98
2023-05-18T14:39:29.587Z,2.53
2023-05-18T14:41:56.090Z,2.25
2023-05-18T14:44:22.541Z,2.10
2023-05-18T14:46:49.165Z,2.00
2023-05-18T14:49:15.644Z,2.00
2023-05-18T14:51:42.022Z,2.30
2023-05-18T14:54:08.451Z,2.33
2023-05-18T14:56:34.890Z,2.65
2023-05-18T14:59:01.763Z,2.25
2023-05-18T15:01:28.310Z,1.85
2023-05-18T15:03:54.896Z,2.08
2023-05-18T15:06:21.440Z,2.00
2023-05-18T15:08:47.973Z,2.05
2023-05-18T15:11:14.389Z,2.33
2023-05-18T15:13:40.893Z,2.22
2023-05-18T15:16:07.561Z,2.15
2023-05-18T15:18:34.027Z,2.17
2023-05-18T15:21:00.504Z,1.95
2023-05-18T15:23:26.946Z,1.90
2023-05-18T15:25:53.503Z,1.88
2023-05-18T15:28:19.919Z,2.30
2023-05-18T15:30:46.437Z,2.10
2023-05-18T15:33:12.894Z,1.75
2023-05-18T15:35:39.706Z,1.88
2023-05-18T15:38:06.218Z,2.03
2023-05-18T15:40:32.839Z,2.10
2023-05-18T15:42:59.625Z,2.25
2023-05-18T15:45:26.693Z,2.20
2023-05-18T15:47:53.153Z,2.10
2023-05-18T15:50:19.610Z,2.22
2023-05-18T15:52:46.047Z,2.45
2023-05-18T15:55:12.588Z,2.28
2023-05-18T15:57:39.090Z,2.58
2023-05-18T16:00:06.363Z,1.92
2023-05-18T16:02:32.824Z,2.20
2023-05-18T16:04:59.592Z,2.20
2023-05-18T16:07:26.206Z,1.88
2023-05-18T16:09:52.629Z,2.17
2023-05-18T16:12:19.024Z,2.17
2023-05-18T16:14:45.521Z,2.00
2023-05-18T16:17:12.033Z,2.33
2023-05-18T16:19:38.494Z,2.17
2023-05-18T16:22:05.027Z,2.78
2023-05-18T16:24:31.455Z,2.25
2023-05-18T16:26:57.977Z,2.80
2023-05-18T16:29:24.450Z,2.40
2023-05-18T16:31:52.007Z,2.30
2023-05-18T16:34:18.672Z,2.28
2023-05-18T16:36:45.198Z,1.95
2023-05-18T16:39:11.705Z,2.10
2023-05-18T16:41:38.081Z,2.25
2023-05-18T16:44:04.528Z,2.22
2023-05-18T16:46:31.053Z,3.17
2023-05-18T16:48:57.461Z,2.28
2023-05-18T16:51:24.898Z,1.90
2023-05-18T16:53:53.109Z,2.20
2023-05-18T16:56:22.117Z,2.00
2023-05-18T16:58:52.478Z,2.10
2023-05-18T17:03:53.169Z,1.92
2023-05-18T17:06:21.185Z,2.17
2023-05-18T17:08:47.709Z,2.78
2023-05-18T17:11:15.370Z,7.53
2023-05-18T17:13:41.927Z,5.18
2023-05-18T17:16:08.475Z,18.10
2023-05-18T17:18:34.934Z,12.18
2023-05-18T17:21:03.514Z,4.95
2023-05-18T17:23:30.091Z,2.92
2023-05-18T17:26:05.903Z,2.50
2023-05-18T17:28:33.272Z,4.50
2023-05-18T17:30:59.718Z,2.60
2023-05-18T17:33:26.296Z,2.30
2023-05-18T17:35:52.924Z,2.72
2023-05-18T17:38:21.627Z,2.55
2023-05-18T17:40:48.472Z,2.15
2023-05-18T17:43:14.871Z,2.85
2023-05-18T17:45:41.297Z,2.55
2023-05-18T17:48:07.787Z,2.55
2023-05-18T17:50:37.442Z,2.00
2023-05-18T17:53:04.819Z,1.70
2023-05-18T17:55:31.523Z,1.88
2023-05-18T17:57:59.594Z,1.88
2023-05-18T18:00:26.089Z,1.95
2023-05-18T18:02:52.660Z,1.98
2023-05-18T18:05:19.180Z,2.20
2023-05-18T18:07:45.660Z,1.90
2023-05-18T18:10:12.445Z,1.98
2023-05-18T18:12:38.883Z,2.30
2023-05-18T18:15:05.690Z,2.55
2023-05-18T18:17:32.090Z,1.83
2023-05-18T18:19:58.804Z,2.13
2023-05-18T18:22:25.192Z,2.30
2023-05-18T18:24:51.562Z,2.38
2023-05-18T18:27:19.815Z,1.95
2023-05-18T18:29:46.387Z,2.10
2023-05-18T18:32:12.830Z,2.33
2023-05-18T18:34:39.229Z,2.22
2023-05-18T18:37:05.716Z,1.80
2023-05-18T18:39:32.296Z,1.90
2023-05-18T18:41:58.718Z,2.05
2023-05-18T18:44:25.143Z,2.10
2023-05-18T18:46:51.684Z,2.33
2023-05-18T18:49:18.297Z,2.08
2023-05-18T18:51:46.580Z,2.17
2023-05-18T18:54:12.999Z,2.08
2023-05-18T18:56:39.575Z,2.13
2023-05-18T18:59:05.997Z,1.80
2023-05-18T19:01:32.555Z,1.65
2023-05-18T19:03:59.029Z,1.80
2023-05-18T19:06:26.114Z,1.80
2023-05-18T19:08:53.329Z,1.80
2023-05-18T19:11:21.874Z,2.00
2023-05-18T19:13:49.474Z,1.70
2023-05-18T19:16:17.593Z,2.20
2023-05-18T19:18:44.627Z,2.28
2023-05-18T19:21:11.461Z,2.25
2023-05-18T19:23:37.899Z,2.35
2023-05-18T19:26:04.387Z,2.33
2023-05-18T19:28:31.072Z,2.15
2023-05-18T19:30:57.637Z,1.90
2023-05-18T19:33:24.060Z,2.00
2023-05-18T19:35:51.667Z,2.00
2023-05-18T19:38:18.180Z,1.90
2023-05-18T19:40:44.632Z,1.90
2023-05-18T19:43:11.383Z,2.38
2023-05-18T19:45:37.898Z,2.05
2023-05-18T19:48:04.594Z,2.50
2023-05-18T19:50:31.198Z,2.15
2023-05-18T19:52:57.693Z,1.88
2023-05-18T19:55:24.210Z,2.08
2023-05-18T19:57:50.676Z,2.38
2023-05-18T20:00:17.279Z,2.42
2023-05-18T20:02:43.783Z,2.35
2023-05-18T20:05:12.804Z,2.20
2023-05-18T20:07:39.404Z,2.20
2023-05-18T20:10:06.608Z,2.05
2023-05-18T20:12:33.042Z,2.42
2023-05-18T20:14:59.603Z,2.58
2023-05-18T20:17:26.124Z,2.83
2023-05-18T20:19:53.372Z,2.88
2023-05-18T20:22:20.323Z,2.50
2023-05-18T20:24:46.766Z,2.38
2023-05-18T20:27:15.000Z,2.75
2023-05-18T20:29:41.655Z,1.88
2023-05-18T20:32:08.134Z,1.92
2023-05-18T20:34:35.485Z,2.10
2023-05-18T20:37:02.388Z,2.00
2023-05-18T20:39:31.448Z,2.20
2023-05-18T20:42:00.697Z,2.40
2023-05-18T20:44:28.623Z,2.20
2023-05-18T20:47:07.098Z,2.30
2023-05-18T20:49:33.938Z,1.90
2023-05-18T20:52:00.494Z,1.85
2023-05-18T20:54:27.727Z,2.25
2023-05-18T20:56:59.659Z,2.10
2023-05-18T21:01:52.877Z,1.90
2023-05-18T21:04:19.909Z,1.88
2023-05-18T21:06:46.454Z,2.33
2023-05-18T21:09:12.992Z,2.03
2023-05-18T21:11:39.756Z,2.40
2023-05-18T21:14:06.145Z,2.22
2023-05-18T21:16:32.780Z,2.40
2023-05-18T21:18:59.221Z,2.35
2023-05-18T21:21:25.753Z,2.00
2023-05-18T21:23:59.336Z,2.47
2023-05-18T21:26:26.489Z,2.05
2023-05-18T21:28:53.997Z,2.78
2023-05-18T21:31:20.517Z,2.22
2023-05-18T21:33:48.274Z,1.88
2023-05-18T21:36:15.892Z,2.30
2023-05-18T21:38:42.498Z,2.20
2023-05-18T21:41:08.949Z,2.40
2023-05-18T21:43:35.503Z,2.22
2023-05-18T21:46:02.047Z,2.20
2023-05-18T21:48:28.565Z,2.47
2023-05-18T21:50:55.006Z,2.30
2023-05-18T21:53:21.424Z,2.15
2023-05-18T21:55:47.811Z,2.25
2023-05-18T21:58:14.324Z,2.33
2023-05-18T22:00:40.705Z,1.83
2023-05-18T22:03:07.153Z,2.05
2023-05-18T22:05:33.605Z,2.20
2023-05-18T22:08:00.042Z,2.25
2023-05-18T22:10:26.546Z,2.33
2023-05-18T22:12:52.981Z,2.25
2023-05-18T22:15:22.139Z,1.80
2023-05-18T22:17:48.922Z,3.30
2023-05-18T22:20:15.967Z,2.22
2023-05-18T22:22:42.462Z,2.30
2023-05-18T22:25:09.150Z,2.17
2023-05-18T22:27:36.758Z,2.15
2023-05-18T22:30:07.153Z,2.58
2023-05-18T22:32:33.759Z,2.00
2023-05-18T22:35:01.154Z,2.20
2023-05-18T22:37:27.634Z,2.40
2023-05-18T22:39:54.173Z,2.42
2023-05-18T22:42:21.321Z,2.40
2023-05-18T22:44:47.937Z,2.22
2023-05-18T22:47:19.511Z,2.20
2023-05-18T22:49:46.305Z,2.90
2023-05-18T22:52:13.313Z,2.25
2023-05-18T22:54:39.772Z,2.30
2023-05-18T22:57:06.218Z,2.28
2023-05-18T22:59:32.700Z,2.30
2023-05-18T23:01:59.116Z,2.22
2023-05-18T23:04:25.677Z,3.05
2023-05-18T23:06:52.178Z,2.50
2023-05-18T23:09:18.612Z,2.35
2023-05-18T23:11:45.174Z,2.58
2023-05-18T23:14:12.752Z,2.25
2023-05-18T23:16:42.633Z,2.20
2023-05-18T23:19:10.163Z,2.35
2023-05-18T23:21:36.739Z,2.53
2023-05-18T23:24:04.470Z,2.13
2023-05-18T23:26:30.861Z,2.30
2023-05-18T23:28:57.274Z,2.70
2023-05-18T23:31:23.669Z,2.50
2023-05-18T23:33:50.412Z,2.25
2023-05-18T23:36:20.138Z,2.30
2023-05-18T23:38:48.753Z,2.10
2023-05-18T23:41:15.543Z,2.40
2023-05-18T23:43:42.217Z,2.40
2023-05-18T23:46:10.225Z,2.90
2023-05-18T23:48:37.194Z,2.70
2023-05-18T23:51:04.052Z,2.85
2023-05-18T23:53:31.261Z,2.65
2023-05-18T23:56:01.768Z,2.78
2023-05-18T23:58:32.194Z,2.63
